createdAt,value
2022-08-20T00:00:51.269Z,19.45
2022-08-20T00:10:33.020Z,20.00
2022-08-20T00:30:16.818Z,20.15
2022-08-20T00:33:10.531Z,19.48
2022-08-20T00:42:43.439Z,18.97
2022-08-20T00:45:26.513Z,18.99
2022-08-20T00:48:16.111Z,19.89
2022-08-20T00:51:02.164Z,18.77
2022-08-20T00:54:13.260Z,19.62
2022-08-20T00:57:08.549Z,19.77
2022-08-20T01:00:01.841Z,19.41
2022-08-20T01:02:50.061Z,19.73
2022-08-20T01:05:54.714Z,18.47
2022-08-20T01:08:46.509Z,18.65
2022-08-20T01:14:47.170Z,19.19
2022-08-20T01:18:01.051Z,18.47
2022-08-20T01:31:40.104Z,18.44
2022-08-20T01:34:16.478Z,18.44
2022-08-20T01:37:17.194Z,19.16
2022-08-20T01:40:18.557Z,19.56
2022-08-20T01:52:52.906Z,19.30
2022-08-20T01:59:00.468Z,18.93
2022-08-20T02:02:41.932Z,18.10
2022-08-20T02:04:51.941Z,19.29
2022-08-20T02:14:00.556Z,18.04
2022-08-20T02:16:54.922Z,19.06
2022-08-20T02:28:56.079Z,18.08
2022-08-20T02:35:41.594Z,17.88
2022-08-20T02:38:40.772Z,19.06
2022-08-20T02:41:24.507Z,18.25
2022-08-20T02:43:57.132Z,19.09
2022-08-20T02:46:39.765Z,17.93
2022-08-20T02:56:33.415Z,18.97
2022-08-20T03:09:16.326Z,17.85
2022-08-20T03:12:19.361Z,17.67
2022-08-20T03:18:02.354Z,18.38
2022-08-20T03:27:06.741Z,18.69
2022-08-20T03:34:28.657Z,18.49
2022-08-20T03:36:57.721Z,17.75
2022-08-20T03:42:37.246Z,18.47
2022-08-20T03:49:06.511Z,17.72
2022-08-20T03:51:58.155Z,18.72
2022-08-20T03:54:34.225Z,18.71
2022-08-20T03:57:48.649Z,17.66
2022-08-20T04:01:44.424Z,17.52
2022-08-20T04:06:48.936Z,18.40
2022-08-20T04:19:02.059Z,17.31
2022-08-20T04:30:23.828Z,17.58
2022-08-20T04:46:10.489Z,18.00
2022-08-20T04:49:11.630Z,16.79
2022-08-20T04:51:56.258Z,16.71
2022-08-20T04:58:40.961Z,16.58
2022-08-20T05:01:44.004Z,17.40
2022-08-20T05:05:12.430Z,17.55
2022-08-20T05:07:51.038Z,17.54
2022-08-20T05:10:41.113Z,16.74
2022-08-20T05:16:51.367Z,16.42
2022-08-20T05:22:49.974Z,17.35
2022-08-20T05:25:26.043Z,17.34
2022-08-20T05:28:57.842Z,16.16
2022-08-20T05:31:59.869Z,17.29
2022-08-20T05:34:55.998Z,17.09
2022-08-20T05:37:55.050Z,17.29
2022-08-20T05:44:02.294Z,17.30
2022-08-20T05:53:45.760Z,17.20
2022-08-20T05:56:38.226Z,16.55
2022-08-20T06:02:22.405Z,17.57
2022-08-20T06:05:25.627Z,17.34
2022-08-20T06:14:45.836Z,16.71
2022-08-20T06:17:58.149Z,17.34
2022-08-20T06:21:11.176Z,16.71
2022-08-20T06:24:34.303Z,17.22
2022-08-20T06:30:36.529Z,17.60
2022-08-20T06:33:29.095Z,17.02
2022-08-20T06:39:20.684Z,17.51
2022-08-20T06:42:03.705Z,17.11
2022-08-20T06:44:39.417Z,18.29
2022-08-20T06:47:27.658Z,18.31
2022-08-20T06:50:31.662Z,17.68
2022-08-20T06:53:35.750Z,18.43
2022-08-20T06:56:14.206Z,17.86
2022-08-20T07:01:51.052Z,18.57
2022-08-20T07:04:18.228Z,18.18
2022-08-20T07:07:10.925Z,18.69
2022-08-20T07:09:49.173Z,18.49
2022-08-20T07:12:52.772Z,17.70
2022-08-20T07:15:39.407Z,18.68
2022-08-20T07:18:30.622Z,17.77
2022-08-20T07:21:36.900Z,18.86
2022-08-20T07:24:13.466Z,18.29
2022-08-20T07:27:26.462Z,18.97
2022-08-20T07:30:09.017Z,18.76
2022-08-20T07:33:03.146Z,18.85
2022-08-20T07:41:56.446Z,18.72
2022-08-20T07:44:45.046Z,19.31
2022-08-20T07:47:23.311Z,19.35
2022-08-20T07:50:02.164Z,19.44
2022-08-20T07:52:31.831Z,18.47
2022-08-20T07:55:15.051Z,19.37
2022-08-20T07:57:57.688Z,19.58
2022-08-20T08:00:48.829Z,19.48
2022-08-20T08:12:49.804Z,19.83
2022-08-20T08:15:47.782Z,19.79
2022-08-20T08:22:03.573Z,19.81
2022-08-20T08:24:57.321Z,19.23
2022-08-20T08:27:31.147Z,19.54
2022-08-20T08:30:03.555Z,20.20
2022-08-20T08:32:40.743Z,20.28
2022-08-20T08:35:21.577Z,20.33
2022-08-20T08:38:04.297Z,20.19
2022-08-20T08:40:44.240Z,19.86
2022-08-20T08:43:25.551Z,20.50
2022-08-20T08:46:14.832Z,19.47
2022-08-20T08:49:03.371Z,20.58
2022-08-20T08:51:49.691Z,20.43
2022-08-20T08:58:19.509Z,20.72
2022-08-20T09:00:57.415Z,20.76
2022-08-20T09:03:42.440Z,19.53
2022-08-20T09:06:30.512Z,20.26
2022-08-20T09:09:10.811Z,20.69
2022-08-20T09:11:48.056Z,20.39
2022-08-20T09:14:30.236Z,20.49
2022-08-20T09:16:57.381Z,20.09
2022-08-20T09:29:50.625Z,21.48
2022-08-20T09:32:26.734Z,21.04
2022-08-20T09:35:09.489Z,21.08
2022-08-20T09:37:50.933Z,21.78
2022-08-20T09:40:33.689Z,21.21
2022-08-20T09:43:08.932Z,22.50
2022-08-20T09:46:27.689Z,23.56
2022-08-20T09:49:46.867Z,24.40
2022-08-20T09:52:38.975Z,25.04
2022-08-20T09:55:38.084Z,25.45
2022-08-20T09:58:17.469Z,26.32
2022-08-20T10:00:44.481Z,26.95
2022-08-20T10:03:11.180Z,27.42
2022-08-20T10:05:39.495Z,27.72
2022-08-20T10:08:06.939Z,27.60
2022-08-20T10:10:33.813Z,27.63
2022-08-20T10:13:00.698Z,27.17
2022-08-20T10:15:28.082Z,26.64
2022-08-20T10:17:56.061Z,25.91
2022-08-20T10:20:24.354Z,25.47
2022-08-20T10:22:52.409Z,24.95
2022-08-20T10:25:19.895Z,24.71
2022-08-20T10:27:46.719Z,25.03
2022-08-20T10:30:13.789Z,25.59
2022-08-20T10:32:40.591Z,25.95
2022-08-20T10:35:07.813Z,26.71
2022-08-20T10:37:34.495Z,27.27
2022-08-20T10:40:03.808Z,27.24
2022-08-20T10:42:30.568Z,27.08
2022-08-20T10:44:57.323Z,26.51
2022-08-20T10:47:26.523Z,26.01
2022-08-20T10:50:02.068Z,25.62
2022-08-20T10:52:29.827Z,25.11
2022-08-20T10:54:56.624Z,25.09
2022-08-20T10:57:27.075Z,24.79
2022-08-20T10:59:57.177Z,24.59
2022-08-20T11:02:24.721Z,24.40
2022-08-20T11:04:52.234Z,24.18
2022-08-20T11:07:55.070Z,23.92
2022-08-20T11:10:30.056Z,24.43
2022-08-20T11:13:08.134Z,25.36
2022-08-20T11:15:46.629Z,25.89
2022-08-20T11:18:14.523Z,27.60
2022-08-20T11:20:55.865Z,27.98
2022-08-20T11:23:26.410Z,28.65
2022-08-20T11:28:39.139Z,29.85
2022-08-20T11:31:10.972Z,30.65
2022-08-20T11:33:48.723Z,30.95
2022-08-20T11:36:26.803Z,30.55
2022-08-20T11:39:06.915Z,30.33
2022-08-20T11:41:37.715Z,31.40
2022-08-20T11:44:20.765Z,31.09
2022-08-20T11:46:53.608Z,31.67
2022-08-20T11:52:30.878Z,32.24
2022-08-20T11:55:05.518Z,32.10
2022-08-20T11:57:55.014Z,32.41
2022-08-20T12:00:34.355Z,31.51
2022-08-20T12:03:08.976Z,30.86
2022-08-20T12:05:39.684Z,30.52
2022-08-20T12:08:07.605Z,29.88
2022-08-20T12:10:35.599Z,30.24
2022-08-20T12:13:19.865Z,30.71
2022-08-20T12:15:54.124Z,30.69
2022-08-20T12:18:21.502Z,29.88
2022-08-20T12:20:53.668Z,29.30
2022-08-20T12:23:20.688Z,29.03
2022-08-20T12:25:47.405Z,29.39
2022-08-20T12:28:14.088Z,29.59
2022-08-20T12:30:40.829Z,29.99
2022-08-20T12:33:09.271Z,29.60
2022-08-20T12:35:36.418Z,28.96
2022-08-20T12:38:06.040Z,28.40
2022-08-20T12:40:33.910Z,27.96
2022-08-20T12:43:01.119Z,27.64
2022-08-20T12:45:28.108Z,27.68
2022-08-20T12:48:01.591Z,28.06
2022-08-20T12:50:31.780Z,27.99
2022-08-20T12:52:59.289Z,28.16
2022-08-20T12:55:26.676Z,28.73
2022-08-20T12:57:56.598Z,28.73
2022-08-20T13:00:29.550Z,28.52
2022-08-20T13:02:58.521Z,28.66
2022-08-20T13:05:27.591Z,28.71
2022-08-20T13:07:56.213Z,28.89
2022-08-20T13:10:33.462Z,29.05
2022-08-20T13:13:06.558Z,28.17
2022-08-20T13:16:02.836Z,29.08
2022-08-20T13:18:57.099Z,28.96
2022-08-20T13:28:38.594Z,28.18
2022-08-20T13:31:14.045Z,28.80
2022-08-20T13:33:41.455Z,29.05
2022-08-20T13:36:08.658Z,28.36
2022-08-20T13:38:37.367Z,28.52
2022-08-20T13:41:06.214Z,28.06
2022-08-20T13:43:33.144Z,28.17
2022-08-20T13:46:00.471Z,28.60
2022-08-20T13:48:27.270Z,28.46
2022-08-20T13:50:56.204Z,28.58
2022-08-20T13:53:23.045Z,27.91
2022-08-20T13:55:53.042Z,28.16
2022-08-20T13:58:24.054Z,29.01
2022-08-20T14:00:54.830Z,28.83
2022-08-20T14:03:25.254Z,28.93
2022-08-20T14:05:52.678Z,29.04
2022-08-20T14:08:22.746Z,28.34
2022-08-20T14:10:52.376Z,29.26
2022-08-20T14:13:22.809Z,29.62
2022-08-20T14:15:50.022Z,28.93
2022-08-20T14:18:27.056Z,28.98
2022-08-20T14:20:59.174Z,30.19
2022-08-20T14:23:26.525Z,29.99
2022-08-20T14:25:53.510Z,29.85
2022-08-20T14:28:24.093Z,30.36
2022-08-20T14:30:53.063Z,30.04
2022-08-20T14:33:24.056Z,29.93
2022-08-20T14:35:51.862Z,29.35
2022-08-20T14:38:18.599Z,29.01
2022-08-20T14:40:45.379Z,28.71
2022-08-20T14:43:15.561Z,27.89
2022-08-20T14:45:43.915Z,28.54
2022-08-20T14:48:13.481Z,28.12
2022-08-20T14:50:40.525Z,27.68
2022-08-20T14:53:08.933Z,27.64
2022-08-20T14:56:06.521Z,26.61
2022-08-20T14:58:41.849Z,27.42
2022-08-20T15:05:46.042Z,26.32
2022-08-20T15:08:36.785Z,27.53
2022-08-20T15:11:14.891Z,27.52
2022-08-20T15:14:49.746Z,27.68
2022-08-20T15:23:39.815Z,26.74
2022-08-20T15:26:26.031Z,27.42
2022-08-20T15:30:40.239Z,27.07
2022-08-20T15:33:07.063Z,26.11
2022-08-20T15:35:34.167Z,26.29
2022-08-20T15:38:01.374Z,26.82
2022-08-20T15:40:33.430Z,26.02
2022-08-20T15:43:04.222Z,26.46
2022-08-20T15:45:37.343Z,26.82
2022-08-20T15:48:11.964Z,26.84
2022-08-20T15:50:58.302Z,27.04
2022-08-20T15:53:31.935Z,27.16
2022-08-20T15:56:08.073Z,27.39
2022-08-20T15:58:49.968Z,27.71
2022-08-20T16:01:25.884Z,27.21
2022-08-20T16:04:12.155Z,27.31
2022-08-20T16:06:41.942Z,26.83
2022-08-20T16:09:31.442Z,26.49
2022-08-20T16:12:10.593Z,26.16
2022-08-20T16:14:42.698Z,26.11
2022-08-20T16:17:13.475Z,26.30
2022-08-20T16:19:51.949Z,26.53
2022-08-20T16:22:19.352Z,26.85
2022-08-20T16:24:47.045Z,27.05
2022-08-20T16:27:24.080Z,27.02
2022-08-20T16:30:00.693Z,27.00
2022-08-20T16:32:35.767Z,26.99
2022-08-20T16:35:15.809Z,26.70
2022-08-20T16:37:47.145Z,26.40
2022-08-20T16:40:25.118Z,26.18
2022-08-20T16:42:54.356Z,26.01
2022-08-20T16:45:30.574Z,26.04
2022-08-20T16:48:01.229Z,24.93
2022-08-20T16:50:34.321Z,25.54
2022-08-20T16:53:02.749Z,25.47
2022-08-20T16:55:29.740Z,25.37
2022-08-20T16:57:59.056Z,25.24
2022-08-20T17:00:30.147Z,25.10
2022-08-20T17:02:59.503Z,24.86
2022-08-20T17:05:31.958Z,24.97
2022-08-20T17:08:01.226Z,24.79
2022-08-20T17:10:30.682Z,24.73
2022-08-20T17:13:00.520Z,24.61
2022-08-20T17:15:31.906Z,24.52
2022-08-20T17:18:19.577Z,24.31
2022-08-20T17:20:48.887Z,24.28
2022-08-20T17:23:56.401Z,24.20
2022-08-20T17:30:01.587Z,23.98
2022-08-20T17:36:21.374Z,23.86
2022-08-20T17:42:25.476Z,23.71
2022-08-20T17:49:03.922Z,22.44
2022-08-20T19:09:06.903Z,21.64
2022-08-20T19:15:39.080Z,20.05
2022-08-20T19:18:57.067Z,21.01
2022-08-20T19:24:56.583Z,20.04
2022-08-20T19:27:41.924Z,20.90
2022-08-20T19:30:35.300Z,19.73
2022-08-20T19:33:14.602Z,19.65
2022-08-20T19:35:49.604Z,20.00
2022-08-20T19:39:34.755Z,20.12
2022-08-20T19:47:55.170Z,19.29
2022-08-20T19:57:06.553Z,18.93
2022-08-20T20:00:08.095Z,18.87
2022-08-20T20:03:20.663Z,19.87
2022-08-20T20:06:39.570Z,18.40
2022-08-20T20:09:55.153Z,19.64
2022-08-20T20:15:37.749Z,19.25
2022-08-20T20:18:30.330Z,18.16
2022-08-20T20:21:45.718Z,18.15
2022-08-20T20:24:42.596Z,18.34
2022-08-20T20:27:35.873Z,18.00
2022-08-20T20:31:05.053Z,17.70
2022-08-20T20:36:51.589Z,18.78
2022-08-20T20:39:57.063Z,18.46
2022-08-20T20:45:46.247Z,17.58
2022-08-20T20:49:05.999Z,17.33
2022-08-20T20:52:17.655Z,18.21
2022-08-20T20:58:29.466Z,17.77
2022-08-20T21:01:01.565Z,18.31
2022-08-20T21:04:42.679Z,18.08
2022-08-20T21:10:30.359Z,17.12
2022-08-20T21:13:02.868Z,18.24
2022-08-20T21:15:35.836Z,17.87
2022-08-20T21:18:26.357Z,17.54
2022-08-20T21:21:18.294Z,18.09
2022-08-20T21:24:21.787Z,16.73
2022-08-20T21:28:04.978Z,17.35
2022-08-20T21:33:47.808Z,17.88
2022-08-20T21:43:55.886Z,16.74
2022-08-20T21:46:24.917Z,16.61
2022-08-20T21:49:49.080Z,17.68
2022-08-20T21:55:39.256Z,16.51
2022-08-20T22:01:32.980Z,17.59
2022-08-20T22:07:53.476Z,17.58
2022-08-20T22:13:42.457Z,17.26
2022-08-20T22:20:07.459Z,17.24
2022-08-20T22:25:20.560Z,17.18
2022-08-20T22:35:02.291Z,16.23
2022-08-20T22:50:12.798Z,16.10
2022-08-20T22:53:23.170Z,17.34
2022-08-20T22:56:30.586Z,16.13
2022-08-20T23:05:31.007Z,16.19
2022-08-20T23:11:45.228Z,16.08
2022-08-20T23:15:56.042Z,17.11
2022-08-20T23:18:17.997Z,17.19
2022-08-20T23:31:23.317Z,16.98
2022-08-20T23:37:31.964Z,15.74
2022-08-20T23:46:59.052Z,16.76
2022-08-20T23:49:53.590Z,16.73
2022-08-20T23:53:08.558Z,16.05
2022-08-20T23:55:54.309Z,15.47
